createdAt,value
2018-09-22T00:01:47.520Z,13.49
2018-09-22T00:06:49.649Z,13.50
2018-09-22T00:11:51.844Z,13.56
2018-09-22T00:16:54.058Z,13.48
2018-09-22T00:21:56.249Z,13.54
2018-09-22T00:26:58.378Z,13.52
2018-09-22T00:32:00.580Z,13.55
2018-09-22T00:37:02.736Z,13.60
2018-09-22T00:42:05.469Z,13.58
2018-09-22T00:47:07.626Z,13.64
2018-09-22T00:52:09.795Z,13.60
2018-09-22T00:57:11.912Z,13.54
2018-09-22T01:02:14.093Z,13.61
2018-09-22T01:07:16.219Z,13.75
2018-09-22T01:12:18.391Z,13.76
2018-09-22T01:17:20.526Z,13.69
2018-09-22T01:22:23.218Z,13.80
2018-09-22T01:27:25.318Z,13.72
2018-09-22T01:32:27.463Z,13.74
2018-09-22T01:37:30.263Z,13.92
2018-09-22T01:42:32.411Z,13.95
2018-09-22T01:47:34.542Z,13.80
2018-09-22T01:52:36.811Z,13.88
2018-09-22T01:57:38.856Z,13.87
2018-09-22T02:02:41.005Z,13.92
2018-09-22T02:07:43.117Z,13.93
2018-09-22T02:12:45.253Z,13.91
2018-09-22T02:17:47.426Z,14.01
2018-09-22T02:22:49.567Z,13.95
2018-09-22T02:27:51.689Z,13.92
2018-09-22T02:32:53.817Z,14.01
2018-09-22T02:37:55.951Z,13.98
2018-09-22T02:42:58.095Z,14.11
2018-09-22T02:48:00.227Z,14.03
2018-09-22T02:53:02.400Z,14.03
2018-09-22T02:58:04.523Z,13.97
2018-09-22T03:03:06.685Z,14.02
2018-09-22T03:08:08.857Z,14.03
2018-09-22T03:13:10.993Z,13.95
2018-09-22T03:18:13.197Z,13.82
2018-09-22T03:23:15.323Z,13.87
2018-09-22T03:28:17.468Z,13.86
2018-09-22T03:33:19.592Z,13.78
2018-09-22T03:38:21.723Z,13.85
2018-09-22T03:43:24.148Z,13.86
2018-09-22T03:48:26.270Z,13.85
2018-09-22T03:53:28.547Z,13.85
2018-09-22T03:58:30.719Z,13.80
2018-09-22T04:03:32.833Z,13.78
2018-09-22T04:08:34.965Z,13.74
2018-09-22T04:13:37.084Z,13.64
2018-09-22T04:18:39.291Z,13.57
2018-09-22T04:23:41.407Z,13.58
2018-09-22T04:28:43.521Z,13.56
2018-09-22T04:33:45.636Z,13.60
2018-09-22T04:38:47.783Z,13.53
2018-09-22T04:43:49.966Z,13.45
2018-09-22T04:48:52.098Z,13.55
2018-09-22T04:53:54.247Z,13.56
2018-09-22T04:58:56.643Z,13.62
2018-09-22T05:03:58.752Z,13.64
2018-09-22T05:09:00.881Z,13.64
2018-09-22T05:14:03.037Z,13.71
2018-09-22T05:19:05.411Z,13.63
2018-09-22T05:24:07.524Z,13.61
2018-09-22T05:29:09.672Z,13.61
2018-09-22T05:34:11.857Z,13.62
2018-09-22T05:39:14.018Z,13.69
2018-09-22T05:44:16.140Z,13.71
2018-09-22T05:49:18.318Z,13.68
2018-09-22T05:54:20.503Z,13.72
2018-09-22T05:59:22.665Z,13.71
2018-09-22T06:04:24.803Z,13.72
2018-09-22T06:09:26.954Z,13.81
2018-09-22T06:14:29.098Z,13.90
2018-09-22T06:19:31.262Z,14.01
2018-09-22T06:24:33.407Z,14.03
2018-09-22T06:29:35.523Z,14.11
2018-09-22T06:34:37.663Z,14.15
2018-09-22T06:39:39.818Z,14.26
2018-09-22T06:44:41.976Z,14.32
2018-09-22T06:49:44.092Z,14.35
2018-09-22T06:54:46.247Z,14.15
2018-09-22T06:59:48.371Z,14.10
2018-09-22T07:04:50.540Z,14.15
2018-09-22T07:09:52.650Z,14.16
2018-09-22T07:14:54.822Z,14.27
2018-09-22T07:19:56.998Z,14.49
2018-09-22T07:24:59.191Z,14.62
2018-09-22T07:30:01.319Z,14.68
2018-09-22T07:35:03.555Z,14.75
2018-09-22T07:40:05.742Z,14.32
2018-09-22T07:45:07.919Z,14.44
2018-09-22T07:50:10.104Z,14.43
2018-09-22T07:55:12.265Z,14.61
2018-09-22T08:00:14.469Z,14.38
2018-09-22T08:05:16.616Z,14.50
2018-09-22T08:10:18.774Z,14.37
2018-09-22T08:15:20.938Z,14.44
2018-09-22T08:20:23.190Z,14.40
2018-09-22T08:25:25.373Z,14.33
2018-09-22T08:30:27.459Z,14.32
2018-09-22T08:35:29.614Z,14.56
2018-09-22T08:40:31.727Z,14.36
2018-09-22T08:45:33.947Z,14.13
2018-09-22T08:50:36.111Z,14.27
2018-09-22T08:55:38.299Z,14.43
2018-09-22T09:00:40.520Z,14.71
2018-09-22T09:05:42.654Z,14.92
2018-09-22T09:10:44.822Z,15.18
2018-09-22T09:15:47.006Z,14.96
2018-09-22T09:20:49.291Z,15.57
2018-09-22T09:25:51.395Z,15.41
2018-09-22T09:30:53.586Z,14.91
2018-09-22T09:35:55.742Z,14.37
2018-09-22T09:40:57.864Z,14.64
2018-09-22T09:46:00.034Z,14.70
2018-09-22T09:51:02.315Z,14.98
2018-09-22T09:56:04.457Z,14.84
2018-09-22T10:01:06.611Z,15.09
2018-09-22T10:06:08.750Z,15.04
2018-09-22T10:11:10.880Z,14.60
2018-09-22T10:16:13.057Z,14.07
2018-09-22T10:21:15.247Z,14.08
2018-09-22T10:26:17.775Z,14.42
2018-09-22T10:31:19.948Z,14.77
2018-09-22T10:36:22.096Z,15.34
2018-09-22T10:41:24.252Z,15.99
2018-09-22T10:46:26.393Z,16.20
2018-09-22T10:51:28.576Z,16.40
2018-09-22T10:56:30.726Z,16.57
2018-09-22T11:01:32.887Z,16.49
2018-09-22T11:06:35.064Z,16.20
2018-09-22T11:11:37.382Z,16.76
2018-09-22T11:16:39.660Z,17.24
2018-09-22T11:21:41.858Z,17.55
2018-09-22T11:26:44.067Z,17.92
2018-09-22T11:31:46.278Z,17.75
2018-09-22T11:36:48.450Z,17.47
2018-09-22T11:41:50.643Z,17.18
2018-09-22T11:46:52.815Z,17.50
2018-09-22T11:51:55.019Z,18.08
2018-09-22T11:56:57.196Z,17.49
2018-09-22T12:01:59.392Z,17.19
2018-09-22T12:07:01.570Z,17.08
2018-09-22T12:12:03.860Z,17.77
2018-09-22T12:17:06.037Z,18.40
2018-09-22T12:22:08.198Z,19.03
2018-09-22T12:27:10.390Z,19.85
2018-09-22T12:32:12.566Z,19.61
2018-09-22T12:37:14.728Z,18.52
2018-09-22T12:42:16.887Z,17.25
2018-09-22T12:47:19.061Z,16.52
2018-09-22T12:52:21.215Z,16.53
2018-09-22T12:57:23.388Z,16.95
2018-09-22T13:02:25.556Z,18.14
2018-09-22T13:07:27.730Z,18.68
2018-09-22T13:12:29.881Z,19.30
2018-09-22T13:17:32.036Z,19.62
2018-09-22T13:22:35.572Z,19.03
2018-09-22T13:27:38.394Z,18.24
2018-09-22T13:32:40.599Z,17.47
2018-09-22T13:37:42.816Z,16.74
2018-09-22T13:42:44.974Z,16.77
2018-09-22T13:47:47.168Z,16.47
2018-09-22T13:52:49.295Z,16.59
2018-09-22T13:57:51.459Z,16.85
2018-09-22T14:02:53.640Z,17.48
2018-09-22T14:07:55.820Z,17.40
2018-09-22T14:12:58.001Z,16.82
2018-09-22T14:18:00.164Z,16.68
2018-09-22T14:23:02.358Z,16.32
2018-09-22T14:28:04.546Z,16.12
2018-09-22T14:33:06.761Z,16.18
2018-09-22T14:38:08.915Z,16.60
2018-09-22T14:43:11.081Z,17.06
2018-09-22T14:48:13.336Z,17.66
2018-09-22T14:53:15.519Z,17.88
2018-09-22T14:58:17.752Z,17.99
2018-09-22T15:03:19.943Z,18.68
2018-09-22T15:08:22.143Z,18.72
2018-09-22T15:13:24.323Z,18.40
2018-09-22T15:18:27.027Z,17.95
2018-09-22T15:23:29.336Z,17.67
2018-09-22T15:28:31.542Z,17.26
2018-09-22T15:33:33.709Z,17.34
2018-09-22T15:38:35.885Z,17.19
2018-09-22T15:43:38.035Z,17.06
2018-09-22T15:48:40.308Z,16.61
2018-09-22T15:53:42.352Z,16.57
2018-09-22T15:58:44.521Z,16.59
2018-09-22T16:03:46.713Z,16.49
2018-09-22T16:08:49.145Z,16.37
2018-09-22T16:13:51.291Z,16.30
2018-09-22T16:18:53.458Z,16.13
2018-09-22T16:23:55.679Z,16.04
2018-09-22T16:28:57.904Z,15.89
2018-09-22T16:34:00.349Z,15.75
2018-09-22T16:39:02.778Z,15.68
2018-09-22T16:44:05.005Z,15.65
2018-09-22T16:49:07.260Z,15.55
2018-09-22T16:54:09.392Z,15.49
2018-09-22T16:59:11.571Z,15.36
2018-09-22T17:04:13.755Z,15.31
2018-09-22T17:09:15.975Z,15.16
2018-09-22T17:14:18.162Z,15.20
2018-09-22T17:19:20.336Z,15.17
2018-09-22T17:24:22.554Z,15.02
2018-09-22T17:29:24.744Z,14.88
2018-09-22T17:34:27.874Z,14.79
2018-09-22T17:39:30.053Z,14.74
2018-09-22T17:44:32.235Z,14.66
2018-09-22T17:49:34.438Z,14.60
2018-09-22T17:54:36.630Z,14.40
2018-09-22T17:59:38.914Z,14.45
2018-09-22T18:04:41.128Z,14.43
2018-09-22T18:09:43.434Z,14.27
2018-09-22T18:14:45.727Z,14.28
2018-09-22T18:19:47.957Z,14.05
2018-09-22T18:24:50.260Z,14.04
2018-09-22T18:29:52.919Z,14.12
2018-09-22T18:34:55.111Z,14.10
2018-09-22T18:39:57.331Z,14.02
2018-09-22T18:44:59.733Z,13.91
2018-09-22T18:50:01.997Z,13.76
2018-09-22T18:55:04.639Z,13.73
2018-09-22T19:00:06.959Z,13.61
2018-09-22T19:05:09.243Z,13.64
2018-09-22T19:10:11.619Z,13.76
2018-09-22T19:15:20.972Z,13.74
2018-09-22T19:20:28.340Z,13.68
2018-09-22T19:25:33.262Z,13.71
2018-09-22T19:30:40.399Z,13.66
2018-09-22T19:37:49.975Z,13.64
2018-09-22T19:42:58.205Z,13.55
2018-09-22T19:48:05.421Z,13.58
2018-09-22T19:53:07.852Z,13.59
2018-09-22T19:58:10.262Z,13.54
2018-09-22T20:03:12.532Z,13.49
2018-09-22T20:08:14.830Z,13.59
2018-09-22T20:13:18.216Z,13.64
2018-09-22T20:18:20.702Z,13.69
2018-09-22T20:23:23.001Z,13.74
2018-09-22T20:28:25.335Z,13.66
2018-09-22T20:33:27.696Z,13.69
2018-09-22T20:38:29.863Z,13.69
2018-09-22T20:43:32.131Z,13.58
2018-09-22T20:48:34.375Z,13.60
2018-09-22T20:53:36.620Z,13.62
2018-09-22T20:58:38.814Z,13.59
2018-09-22T21:03:41.093Z,13.55
2018-09-22T21:08:43.399Z,13.57
2018-09-22T21:13:45.677Z,13.54
2018-09-22T21:18:47.882Z,13.43
2018-09-22T21:23:50.062Z,13.42
2018-09-22T21:28:52.336Z,13.12
2018-09-22T21:33:54.565Z,13.13
2018-09-22T21:38:56.790Z,13.19
2018-09-22T21:43:58.950Z,13.17
2018-09-22T21:49:01.142Z,13.18
2018-09-22T21:54:03.659Z,13.23
2018-09-22T21:59:05.830Z,13.21
2018-09-22T22:04:09.121Z,13.23
2018-09-22T22:09:12.583Z,13.27
2018-09-22T22:14:14.754Z,13.21
2018-09-22T22:19:16.945Z,13.19
2018-09-22T22:24:19.125Z,13.19
2018-09-22T22:29:21.330Z,13.18
2018-09-22T22:34:23.490Z,13.21
2018-09-22T22:39:25.649Z,13.24
2018-09-22T22:44:27.843Z,13.25
2018-09-22T22:49:30.030Z,13.22
2018-09-22T22:54:32.186Z,13.17
2018-09-22T22:59:34.398Z,13.08
2018-09-22T23:04:36.775Z,13.02
2018-09-22T23:09:38.983Z,13.06
2018-09-22T23:14:41.137Z,13.18
2018-09-22T23:19:43.330Z,13.25
2018-09-22T23:24:45.465Z,13.23
2018-09-22T23:29:47.628Z,13.16
2018-09-22T23:34:49.771Z,13.19
2018-09-22T23:39:51.915Z,13.17
2018-09-22T23:44:54.443Z,13.12
2018-09-22T23:49:56.563Z,13.10
2018-09-22T23:54:58.689Z,13.06
